Time;durP1;ratioP1;P1;durP2;ratioP2;P2;SDS_P1;SDS_P2;PMS_P1;PMS_P2;Temp;Humidity;BMP_temperature;BMP_pressure;BME280_temperature;BME280_humidity;BME280_pressure;Samples;Min_cycle;Max_cycle;Signal;HPM_P1;HPM_P2
2022/09/22 00:01:01;;;;;;;;;;;;;;;9.65;86.98;100762.77;1421458;91;20332;-79
2022/09/22 00:03:35;;;;;;;;;;;;;;;9.64;87.11;100755.81;1426409;90;20298;-80
2022/09/22 00:06:05;;;;;;;;;;;;;;;9.63;88.14;100756.27;1430256;91;20355;-80
2022/09/22 00:08:35;;;;;;;;;;;;;;;9.62;88.10;100763.03;1425880;90;20266;-78
2022/09/22 00:11:12;;;;;;;;;;;;;;;9.60;88.70;100767.60;1427524;91;20421;-80
2022/09/22 00:13:40;;;;;;;;;;;;;;;9.60;88.95;100758.35;1415627;92;21105;-79
2022/09/22 00:16:08;;;;;;;;;;;;;;;9.60;88.67;100756.55;1418302;91;20808;-79
2022/09/22 00:18:36;;;;;;;;;;;;;;;9.60;89.48;100748.61;1438123;91;20294;-79
2022/09/22 00:21:14;;;;;;;;;;;;;;;9.62;89.24;100753.29;1425481;90;20341;-79
2022/09/22 00:23:41;;;;;;;;;;;;;;;9.62;88.56;100757.74;1427741;91;20302;-79
2022/09/22 00:26:12;;;;;;;;;;;;;;;9.63;88.79;100754.12;1436572;91;21101;-79
2022/09/22 00:28:40;;;;;;;;;;;;;;;9.60;87.67;100755.22;1407771;91;20334;-79
2022/09/22 00:31:11;;;;;;;;;;;;;;;9.59;87.71;100752.73;1417093;91;20359;-79
2022/09/22 00:33:40;;;;;;;;;;;;;;;9.59;87.98;100752.73;1351181;92;20252;-80
2022/09/22 00:36:08;;;;;;;;;;;;;;;9.59;87.44;100751.41;1423518;91;20311;-80
2022/09/22 00:38:37;;;;;;;;;;;;;;;9.59;87.81;100752.73;1399958;91;20406;-78
2022/09/22 00:41:04;;;;;;;;;;;;;;;9.59;88.16;100751.41;1417298;91;20290;-79
2022/09/22 00:43:35;;;;;;;;;;;;;;;9.59;88.01;100748.77;1417957;91;20318;-78
2022/09/22 00:46:13;;;;;;;;;;;;;;;9.58;87.92;100744.42;1415618;90;20759;-79
2022/09/22 00:48:49;;;;;;;;;;;;;;;9.56;87.65;100741.11;1426999;91;20310;-79
2022/09/22 00:51:18;;;;;;;;;;;;;;;9.49;87.71;100742.97;1431054;91;20310;-79
2022/09/22 00:53:46;;;;;;;;;;;;;;;9.44;87.46;100745.16;1420992;91;20297;-79
2022/09/22 00:56:19;;;;;;;;;;;;;;;9.37;88.25;100749.28;1407990;91;20246;-79
2022/09/22 00:58:52;;;;;;;;;;;;;;;9.29;89.05;100747.78;1419159;91;20357;-79
2022/09/22 01:01:19;;;;;;;;;;;;;;;9.25;88.79;100755.63;1417169;91;20334;-79
2022/09/22 01:03:46;;;;;;;;;;;;;;;9.22;88.32;100741.36;1404722;91;20766;-78
2022/09/22 01:06:16;;;;;;;;;;;;;;;9.18;88.45;100746.08;1388891;91;20578;-79
2022/09/22 01:08:43;;;;;;;;;;;;;;;9.17;88.81;100739.59;1425451;91;20475;-79
2022/09/22 01:11:12;;;;;;;;;;;;;;;9.13;90.03;100742.16;1423750;91;20818;-80
2022/09/22 01:13:55;;;;;;;;;;;;;;;9.07;90.09;100742.67;1424456;91;20965;-79
2022/09/22 01:16:51;;;;;;;;;;;;;;;9.02;90.48;100734.65;1415255;91;20311;-79
2022/09/22 01:19:48;;;;;;;;;;;;;;;9.02;90.93;100737.77;1419799;90;20803;-79
2022/09/22 01:22:39;;;;;;;;;;;;;;;9.00;91.02;100742.34;1422430;91;20875;-79
2022/09/22 01:25:36;;;;;;;;;;;;;;;9.00;91.13;100740.53;1419962;91;20229;-79
2022/09/22 01:28:39;;;;;;;;;;;;;;;9.00;91.18;100740.53;1416956;91;20335;-80
2022/09/22 01:31:16;;;;;;;;;;;;;;;8.98;90.83;100739.02;1423433;91;20907;-79
2022/09/22 01:33:55;;;;;;;;;;;;;;;8.94;91.01;100745.50;1424256;91;20229;-80
2022/09/22 01:36:31;;;;;;;;;;;;;;;8.88;91.27;100745.53;1428151;91;20543;-79
2022/09/22 01:39:08;;;;;;;;;;;;;;;8.87;91.25;100742.55;1410804;91;20793;-79
2022/09/22 01:41:44;;;;;;;;;;;;;;;8.87;91.60;100740.40;1411813;91;20517;-78
2022/09/22 01:44:15;;;;;;;;;;;;;;;8.83;91.83;100738.48;1414343;91;20276;-77
2022/09/22 01:46:46;;;;;;;;;;;;;;;8.82;91.74;100736.81;1419284;92;20365;-77
2022/09/22 01:49:13;;;;;;;;;;;;;;;8.78;92.19;100738.05;1419638;91;20372;-76
2022/09/22 01:51:46;;;;;;;;;;;;;;;8.78;91.63;100742.84;1430293;90;20794;-77
2022/09/22 01:54:20;;;;;;;;;;;;;;;8.78;91.07;100740.69;1423876;91;21494;-77
2022/09/22 01:56:50;;;;;;;;;;;;;;;8.75;91.13;100736.98;1408338;91;20446;-77
2022/09/22 01:59:19;;;;;;;;;;;;;;;8.77;90.88;100749.06;1406505;92;20394;-76
2022/09/22 02:01:52;;;;;;;;;;;;;;;8.76;90.91;100742.61;1413933;93;20379;-78
2022/09/22 02:04:31;;;;;;;;;;;;;;;8.73;91.69;100739.73;1407547;91;20387;-77
2022/09/22 02:07:01;;;;;;;;;;;;;;;8.72;92.44;100731.97;1430771;91;20525;-77
2022/09/22 02:09:30;;;;;;;;;;;;;;;8.72;91.67;100730.16;1427466;91;20818;-77
2022/09/22 02:11:57;;;;;;;;;;;;;;;8.70;91.79;100729.44;1408525;93;20282;-76
2022/09/22 02:14:25;;;;;;;;;;;;;;;8.70;91.78;100725.97;1407391;93;20297;-77
2022/09/22 02:16:53;;;;;;;;;;;;;;;8.70;91.54;100733.89;1406083;92;20336;-78
2022/09/22 02:19:25;;;;;;;;;;;;;;;8.69;91.42;100728.23;1411840;93;20497;-76
2022/09/22 02:21:52;;;;;;;;;;;;;;;8.68;91.37;100722.13;1402171;92;20453;-77
2022/09/22 02:24:36;;;;;;;;;;;;;;;8.67;91.30;100730.19;1410962;91;20380;-77
2022/09/22 02:27:10;;;;;;;;;;;;;;;8.70;91.55;100729.93;1429514;90;20430;-76
2022/09/22 02:29:42;;;;;;;;;;;;;;;8.70;92.05;100732.57;1426698;91;20396;-75
2022/09/22 02:32:12;;;;;;;;;;;;;;;8.72;91.55;100733.29;1424537;91;20302;-76
2022/09/22 02:34:39;;;;;;;;;;;;;;;8.73;91.29;100730.98;1412952;91;20409;-76
2022/09/22 02:37:09;;;;;;;;;;;;;;;8.77;91.71;100733.72;1423177;91;20258;-77
2022/09/22 02:39:55;;;;;;;;;;;;;;;8.76;91.01;100732.05;1431045;90;20860;-77
2022/09/22 02:42:32;;;;;;;;;;;;;;;8.76;91.03;100732.05;1421040;91;20269;-78
2022/09/22 02:45:18;;;;;;;;;;;;;;;8.74;91.28;100739.25;1409421;91;20327;-77
2022/09/22 02:47:51;;;;;;;;;;;;;;;8.68;90.55;100740.59;1418598;91;20357;-78
2022/09/22 02:50:20;;;;;;;;;;;;;;;8.62;90.68;100746.39;1417352;91;20318;-77
2022/09/22 02:52:54;;;;;;;;;;;;;;;8.59;90.82;100748.80;1429412;91;20400;-77
2022/09/22 02:55:21;;;;;;;;;;;;;;;8.58;90.98;100748.94;1414897;91;20351;-77
2022/09/22 02:57:48;;;;;;;;;;;;;;;8.56;90.98;100754.33;1423501;91;20325;-77
2022/09/22 03:00:15;;;;;;;;;;;;;;;8.53;91.33;100751.95;1394845;90;20418;-77
2022/09/22 03:02:42;;;;;;;;;;;;;;;8.49;91.54;100753.17;1429613;90;20325;-78
2022/09/22 03:05:09;;;;;;;;;;;;;;;8.47;91.02;100748.98;1419050;90;20795;-76
2022/09/22 03:07:36;;;;;;;;;;;;;;;8.44;91.18;100751.39;1407597;90;20715;-76
2022/09/22 03:10:04;;;;;;;;;;;;;;;8.42;91.44;100755.11;1423162;90;20274;-77
2022/09/22 03:12:31;;;;;;;;;;;;;;;8.35;91.42;100748.16;1421245;91;20310;-74
2022/09/22 03:14:57;;;;;;;;;;;;;;;8.31;91.37;100749.36;1417328;91;20387;-76
2022/09/22 03:17:24;;;;;;;;;;;;;;;8.29;91.78;100747.34;1414736;92;20952;-76
2022/09/22 03:19:51;;;;;;;;;;;;;;;8.23;92.74;100752.64;1431308;91;20295;-74
2022/09/22 03:22:18;;;;;;;;;;;;;;;8.21;91.99;100753.72;1431638;91;20348;-74
2022/09/22 03:24:45;;;;;;;;;;;;;;;8.16;91.87;100747.48;1429579;91;20370;-77
2022/09/22 03:27:11;;;;;;;;;;;;;;;8.16;92.31;100749.29;1408607;91;20293;-77
2022/09/22 03:29:38;;;;;;;;;;;;;;;8.19;92.49;100746.41;1390559;94;20321;-76
2022/09/22 03:32:05;;;;;;;;;;;;;;;8.22;93.12;100746.16;1411678;93;20857;-76
2022/09/22 03:34:32;;;;;;;;;;;;;;;8.20;92.79;100746.30;1427753;91;20295;-76
2022/09/22 03:36:59;;;;;;;;;;;;;;;8.21;92.72;100747.12;1430451;92;21059;-76
2022/09/22 03:39:26;;;;;;;;;;;;;;;8.26;93.31;100747.59;1418958;92;20443;-76
2022/09/22 03:41:53;;;;;;;;;;;;;;;8.30;93.64;100744.56;1427223;91;20280;-74
2022/09/22 03:44:20;;;;;;;;;;;;;;;8.33;93.71;100747.44;1435100;91;20850;-76
2022/09/22 03:46:46;;;;;;;;;;;;;;;8.34;94.06;100743.38;1434055;91;20287;-76
2022/09/22 03:49:13;;;;;;;;;;;;;;;8.33;93.67;100742.16;1420933;91;20329;-75
2022/09/22 03:51:40;;;;;;;;;;;;;;;8.33;93.32;100745.63;1412506;91;20313;-76
2022/09/22 03:54:08;;;;;;;;;;;;;;;8.33;93.38;100734.25;1426785;91;20283;-76
2022/09/22 03:56:35;;;;;;;;;;;;;;;8.34;93.01;100739.88;1424701;90;20407;-75
2022/09/22 03:59:02;;;;;;;;;;;;;;;8.33;93.97;100732.94;1412246;92;20374;-77
2022/09/22 04:01:29;;;;;;;;;;;;;;;8.34;93.97;100737.23;1416462;91;20274;-76
2022/09/22 04:03:56;;;;;;;;;;;;;;;8.32;94.64;100739.19;1417430;90;20282;-76
2022/09/22 04:06:22;;;;;;;;;;;;;;;8.36;94.43;100739.27;1422905;91;20460;-77
2022/09/22 04:08:49;;;;;;;;;;;;;;;8.37;94.64;100744.89;1422573;91;20310;-77
2022/09/22 04:11:16;;;;;;;;;;;;;;;8.36;94.10;100749.34;1426767;91;20303;-77
2022/09/22 04:13:43;;;;;;;;;;;;;;;8.36;94.32;100754.61;1428004;91;20333;-76
2022/09/22 04:16:09;;;;;;;;;;;;;;;8.38;94.21;100753.67;1415294;91;20273;-76
2022/09/22 04:18:39;;;;;;;;;;;;;;;8.39;94.46;100752.24;1426428;90;20363;-76
2022/09/22 04:21:07;;;;;;;;;;;;;;;8.38;93.65;100751.86;1429216;91;20384;-75
2022/09/22 04:23:34;;;;;;;;;;;;;;;8.41;93.54;100750.32;1402774;91;20342;-76
2022/09/22 04:26:02;;;;;;;;;;;;;;;8.50;94.28;100747.41;1406778;91;20386;-75
2022/09/22 04:28:30;;;;;;;;;;;;;;;8.52;95.00;100746.33;1411796;90;20419;-76
2022/09/22 04:30:57;;;;;;;;;;;;;;;8.55;94.26;100742.11;1414214;92;20312;-76
2022/09/22 04:33:24;;;;;;;;;;;;;;;8.62;94.54;100737.64;1421210;91;20362;-76
2022/09/22 04:35:51;;;;;;;;;;;;;;;8.64;94.42;100744.47;1437055;90;20274;-79
2022/09/22 04:38:18;;;;;;;;;;;;;;;8.66;94.32;100748.28;1407666;91;20320;-77
2022/09/22 04:40:47;;;;;;;;;;;;;;;8.69;94.19;100744.07;1418112;90;20831;-79
2022/09/22 04:43:14;;;;;;;;;;;;;;;8.73;94.24;100745.50;1432102;91;20318;-79
2022/09/22 04:45:44;;;;;;;;;;;;;;;8.77;94.34;100741.63;1412950;91;20848;-79
2022/09/22 04:48:11;;;;;;;;;;;;;;;8.78;94.23;100751.25;1405239;91;20282;-79
2022/09/22 04:50:38;;;;;;;;;;;;;;;8.83;94.00;100748.20;1406161;91;20311;-78
2022/09/22 04:53:06;;;;;;;;;;;;;;;8.82;93.59;100751.33;1410064;91;20319;-78
2022/09/22 04:55:33;;;;;;;;;;;;;;;8.85;93.62;100743.16;1404084;92;20403;-77
2022/09/22 04:58:00;;;;;;;;;;;;;;;8.86;93.47;100750.13;1416324;91;20340;-79
2022/09/22 05:00:28;;;;;;;;;;;;;;;8.88;93.27;100753.45;1432328;91;20383;-79
2022/09/22 05:02:56;;;;;;;;;;;;;;;8.92;93.23;100752.70;1426259;91;20415;-79
2022/09/22 05:05:26;;;;;;;;;;;;;;;8.95;93.03;100755.95;1430464;91;20288;-79
2022/09/22 05:07:53;;;;;;;;;;;;;;;8.99;93.07;100759.16;1415738;91;20239;-80
2022/09/22 05:10:26;;;;;;;;;;;;;;;9.03;92.98;100747.36;1422806;90;20830;-79
2022/09/22 05:12:53;;;;;;;;;;;;;;;9.08;92.95;100745.66;1424873;91;20694;-77
2022/09/22 05:15:21;;;;;;;;;;;;;;;9.13;93.32;100754.03;1415615;91;20261;-76
2022/09/22 05:17:51;;;;;;;;;;;;;;;9.13;93.39;100753.55;1409209;91;20334;-76
2022/09/22 05:20:19;;;;;;;;;;;;;;;9.13;94.77;100752.23;1404813;92;20395;-77
2022/09/22 05:22:46;;;;;;;;;;;;;;;9.17;93.86;100746.19;1403356;92;20508;-76
2022/09/22 05:25:16;;;;;;;;;;;;;;;9.26;94.06;100746.72;1408863;92;20434;-76
2022/09/22 05:27:45;;;;;;;;;;;;;;;9.32;94.00;100744.91;1403102;92;20394;-76
2022/09/22 05:30:13;;;;;;;;;;;;;;;9.40;94.05;100747.70;1387001;93;20254;-77
2022/09/22 05:32:44;;;;;;;;;;;;;;;9.47;93.13;100748.86;1405432;92;20882;-77
2022/09/22 05:35:17;;;;;;;;;;;;;;;9.55;92.77;100753.95;1406650;91;20892;-76
2022/09/22 05:37:45;;;;;;;;;;;;;;;9.54;92.14;100757.08;1402480;92;20995;-76
2022/09/22 05:40:13;;;;;;;;;;;;;;;9.51;92.50;100760.48;1413313;92;21149;-77
2022/09/22 05:42:42;;;;;;;;;;;;;;;9.52;92.29;100755.53;1409477;92;20297;-76
2022/09/22 05:45:09;;;;;;;;;;;;;;;9.59;92.25;100759.34;1405700;92;20915;-76
2022/09/22 05:47:38;;;;;;;;;;;;;;;9.70;92.83;100765.84;1402881;92;20372;-75
2022/09/22 05:50:06;;;;;;;;;;;;;;;9.79;92.73;100765.53;1399783;92;20863;-76
2022/09/22 05:52:33;;;;;;;;;;;;;;;9.93;93.60;100763.34;1405925;92;20290;-78
2022/09/22 05:55:00;;;;;;;;;;;;;;;10.07;93.03;100767.42;1401853;92;20819;-79
2022/09/22 05:57:27;;;;;;;;;;;;;;;10.21;92.65;100770.62;1401122;92;20326;-78
2022/09/22 05:59:54;;;;;;;;;;;;;;;10.34;92.22;100769.42;1405653;92;20289;-79
2022/09/22 06:02:22;;;;;;;;;;;;;;;10.42;89.67;100774.53;1399520;93;20320;-78
2022/09/22 06:04:49;;;;;;;;;;;;;;;10.44;89.78;100765.45;1405530;92;20953;-78
2022/09/22 06:07:21;;;;;;;;;;;;;;;10.47;90.20;100765.20;1405805;92;20438;-79
2022/09/22 06:09:48;;;;;;;;;;;;;;;10.50;90.19;100764.92;1406434;90;20357;-79
2022/09/22 06:12:16;;;;;;;;;;;;;;;10.57;90.09;100767.84;1409182;92;20312;-78
2022/09/22 06:14:43;;;;;;;;;;;;;;;10.67;90.47;100757.24;1408558;91;20319;-77
2022/09/22 06:17:11;;;;;;;;;;;;;;;10.76;90.15;100763.88;1404233;93;20327;-78
2022/09/22 06:19:39;;;;;;;;;;;;;;;10.88;89.99;100771.67;1401764;92;20335;-79
2022/09/22 06:22:09;;;;;;;;;;;;;;;10.94;87.96;100771.94;1401894;92;20268;-79
2022/09/22 06:24:36;;;;;;;;;;;;;;;11.01;87.71;100770.38;1407186;92;20371;-79
2022/09/22 06:27:03;;;;;;;;;;;;;;;11.11;86.68;100768.22;1402401;92;20990;-79
2022/09/22 06:29:30;;;;;;;;;;;;;;;11.19;84.43;100773.16;1392041;92;20812;-79
2022/09/22 06:31:57;;;;;;;;;;;;;;;11.30;83.08;100772.95;1413453;92;20283;-84
2022/09/22 06:34:26;;;;;;;;;;;;;;;11.40;83.47;100770.79;1403725;92;20291;-82
2022/09/22 06:36:56;;;;;;;;;;;;;;;11.51;82.46;100772.77;1405833;92;20269;-85
2022/09/22 06:39:22;;;;;;;;;;;;;;;11.59;81.29;100770.70;1402984;92;20261;-82
2022/09/22 06:41:49;;;;;;;;;;;;;;;11.78;84.62;100773.77;1402402;92;20268;-84
2022/09/22 06:44:16;;;;;;;;;;;;;;;11.96;80.35;100776.48;1406244;92;20814;-83
2022/09/22 06:46:44;;;;;;;;;;;;;;;12.04;78.89;100774.44;1410846;93;20246;-83
2022/09/22 06:49:12;;;;;;;;;;;;;;;12.13;78.11;100775.69;1409261;93;20254;-83
2022/09/22 06:51:39;;;;;;;;;;;;;;;12.34;79.29;100782.54;1402690;92;20306;-84
2022/09/22 06:54:06;;;;;;;;;;;;;;;12.46;77.85;100776.05;1408635;92;20309;-84
2022/09/22 06:56:36;;;;;;;;;;;;;;;12.55;79.20;100773.80;1406884;92;20767;-84
2022/09/22 06:59:09;;;;;;;;;;;;;;;12.64;81.30;100774.21;1406692;92;20292;-83
2022/09/22 07:01:35;;;;;;;;;;;;;;;12.56;76.11;100771.48;1410057;92;20365;-82
2022/09/22 07:04:03;;;;;;;;;;;;;;;12.69;77.58;100768.45;1398636;93;20289;-83
2022/09/22 07:06:30;;;;;;;;;;;;;;;12.68;75.35;100767.27;1406549;92;20268;-81
2022/09/22 07:08:57;;;;;;;;;;;;;;;12.69;75.31;100762.28;1406554;92;20928;-83
2022/09/22 07:11:24;;;;;;;;;;;;;;;12.72;75.22;100768.15;1410851;92;20426;-83
2022/09/22 07:13:52;;;;;;;;;;;;;;;12.65;73.28;100767.91;1400859;92;20402;-83
2022/09/22 07:16:21;;;;;;;;;;;;;;;12.77;74.41;100774.31;1410513;92;20395;-82
2022/09/22 07:18:51;;;;;;;;;;;;;;;12.79;74.47;100772.34;1406151;92;20365;-82
2022/09/22 07:21:21;;;;;;;;;;;;;;;12.81;72.83;100772.53;1407397;92;20343;-83
2022/09/22 07:23:49;;;;;;;;;;;;;;;12.84;72.88;100779.36;1408406;92;20297;-83
2022/09/22 07:26:22;;;;;;;;;;;;;;;12.77;71.94;100775.64;1403108;92;20759;-85
2022/09/22 07:28:55;;;;;;;;;;;;;;;12.84;72.47;100777.53;1407117;93;20269;-84
2022/09/22 07:31:22;;;;;;;;;;;;;;;12.97;73.56;100777.13;1414514;92;20454;-83
2022/09/22 07:33:51;;;;;;;;;;;;;;;13.13;73.96;100771.61;1400878;92;20672;-83
2022/09/22 07:36:20;;;;;;;;;;;;;;;13.15;72.12;100776.25;1388490;93;20417;-83
2022/09/22 07:38:49;;;;;;;;;;;;;;;13.18;72.62;100775.97;1405982;93;20313;-83
2022/09/22 07:41:27;;;;;;;;;;;;;;;13.23;72.77;100778.97;1413885;92;20304;-82
2022/09/22 07:45:11;;;;;;;;;;;;;;;13.26;73.21;100778.22;1409274;92;20231;-83
2022/09/22 07:46:25;;;;;;;;;;;;;;;13.25;72.45;100771.68;1402224;93;20825;-80
2022/09/22 07:48:52;;;;;;;;;;;;;;;13.24;72.61;100778.00;1402092;92;20438;-83
2022/09/22 07:51:21;;;;;;;;;;;;;;;13.32;72.96;100779.37;1399419;92;20313;-82
2022/09/22 07:54:05;;;;;;;;;;;;;;;13.38;72.20;100781.44;1409330;92;20319;-84
2022/09/22 07:56:26;;;;;;;;;;;;;;;13.46;72.07;100778.80;1407688;92;20401;-84
2022/09/22 07:58:52;;;;;;;;;;;;;;;13.63;71.42;100780.23;1416373;92;20415;-82
2022/09/22 08:01:21;;;;;;;;;;;;;;;13.73;69.52;100787.61;1409862;92;20319;-83
2022/09/22 08:03:49;;;;;;;;;;;;;;;13.85;67.21;100784.98;1416261;92;20246;-83
2022/09/22 08:06:19;;;;;;;;;;;;;;;13.92;68.53;100784.66;1412647;92;20245;-83
2022/09/22 08:08:52;;;;;;;;;;;;;;;14.03;68.68;100787.54;1412643;92;20277;-84
2022/09/22 08:11:19;;;;;;;;;;;;;;;14.06;67.26;100788.55;1418331;92;20798;-84
2022/09/22 08:13:52;;;;;;;;;;;;;;;14.11;67.47;100784.91;1421198;92;20298;-83
2022/09/22 08:16:24;;;;;;;;;;;;;;;14.11;67.25;100788.08;1410547;92;20313;-83
2022/09/22 08:18:55;;;;;;;;;;;;;;;14.27;67.29;100786.80;1415929;92;20426;-83
2022/09/22 08:21:27;;;;;;;;;;;;;;;14.18;66.41;100779.77;1413310;92;20268;-83
2022/09/22 08:23:53;;;;;;;;;;;;;;;13.91;64.23;100788.84;1411615;92;20268;-81
2022/09/22 08:26:21;;;;;;;;;;;;;;;13.90;63.93;100782.69;1413954;92;20261;-81
2022/09/22 08:28:52;;;;;;;;;;;;;;;13.90;64.88;100780.03;1412369;92;20311;-82
2022/09/22 08:31:20;;;;;;;;;;;;;;;13.91;64.95;100787.00;1411810;92;20342;-82
2022/09/22 08:33:49;;;;;;;;;;;;;;;14.05;66.05;100788.22;1411747;92;20297;-82
2022/09/22 08:36:15;;;;;;;;;;;;;;;14.12;66.67;100789.73;1422264;92;20297;-83
2022/09/22 08:38:48;;;;;;;;;;;;;;;14.17;66.07;100786.09;1396899;92;20304;-82
2022/09/22 08:41:37;;;;;;;;;;;;;;;14.16;65.32;100785.77;1403032;91;20857;-83
2022/09/22 08:44:10;;;;;;;;;;;;;;;14.12;63.52;100785.73;1406295;90;20756;-84
2022/09/22 08:46:40;;;;;;;;;;;;;;;14.37;65.24;100789.30;1397617;91;20478;-77
2022/09/22 08:52:22;;;;;;;;;;;;;;;14.52;64.49;100789.52;1409925;91;20464;-80
2022/09/22 08:54:49;;;;;;;;;;;;;;;14.35;62.70;100796.11;1402277;91;20404;-81
2022/09/22 08:57:44;;;;;;;;;;;;;;;14.46;63.88;100797.64;1398045;92;20467;-84
2022/09/22 09:00:13;;;;;;;;;;;;;;;14.53;64.52;100792.51;1390093;92;20884;-84
2022/09/22 09:03:05;;;;;;;;;;;;;;;14.66;64.54;100789.70;1391083;92;20508;-81
2022/09/22 09:06:03;;;;;;;;;;;;;;;14.81;64.51;100781.05;1388433;91;20318;-78
2022/09/22 09:08:44;;;;;;;;;;;;;;;14.77;60.39;100783.22;1395083;92;20359;-79
2022/09/22 09:11:23;;;;;;;;;;;;;;;14.71;60.64;100782.55;1395488;92;21008;-80
2022/09/22 09:14:16;;;;;;;;;;;;;;;14.82;62.27;100780.07;1396206;91;20469;-78
2022/09/22 09:16:50;;;;;;;;;;;;;;;14.83;60.92;100778.55;1410344;90;20548;-80
2022/09/22 09:19:20;;;;;;;;;;;;;;;14.99;62.68;100782.20;1387334;92;20307;-81
2022/09/22 09:21:50;;;;;;;;;;;;;;;15.08;62.12;100785.22;1381625;94;20285;-80
2022/09/22 09:24:33;;;;;;;;;;;;;;;14.97;59.65;100783.72;1386726;93;20353;-79
2022/09/22 09:27:08;;;;;;;;;;;;;;;15.16;60.61;100769.19;1381036;93;20426;-79
2022/09/22 09:29:33;;;;;;;;;;;;;;;15.51;61.24;100770.62;1392758;94;21131;-80
2022/09/22 09:32:01;;;;;;;;;;;;;;;15.46;58.19;100769.48;1391212;94;20301;-80
2022/09/22 09:34:29;;;;;;;;;;;;;;;15.42;59.26;100777.47;1385106;93;20340;-80
2022/09/22 09:37:06;;;;;;;;;;;;;;;15.29;56.98;100772.17;1386385;94;20346;-79
2022/09/22 09:39:37;;;;;;;;;;;;;;;15.27;57.18;100769.34;1383904;94;20805;-79
2022/09/22 09:42:23;;;;;;;;;;;;;;;15.42;58.13;100773.00;1388683;94;20293;-80
2022/09/22 09:44:52;;;;;;;;;;;;;;;15.43;56.65;100774.65;1388754;94;20390;-80
2022/09/22 09:47:26;;;;;;;;;;;;;;;15.44;56.53;100770.14;1385269;93;20322;-80
2022/09/22 09:49:54;;;;;;;;;;;;;;;15.38;56.91;100772.98;1381790;94;20339;-80
2022/09/22 09:52:22;;;;;;;;;;;;;;;15.35;57.55;100771.48;1390877;93;20286;-80
2022/09/22 09:54:49;;;;;;;;;;;;;;;15.46;57.86;100776.14;1381634;94;20331;-79
2022/09/22 09:57:17;;;;;;;;;;;;;;;15.54;55.88;100774.80;1385783;93;20273;-79
2022/09/22 10:02:49;;;;;;;;;;;;;;;16.02;57.28;100767.59;1383152;94;20791;-78
2022/09/22 10:05:21;;;;;;;;;;;;;;;16.29;55.46;100769.48;1386384;94;20976;-77
2022/09/22 10:07:50;;;;;;;;;;;;;;;16.15;51.87;100761.70;1388607;93;20307;-77
2022/09/22 10:10:40;;;;;;;;;;;;;;;16.41;55.49;100768.05;1380870;93;20791;-78
2022/09/22 10:13:10;;;;;;;;;;;;;;;16.65;52.05;100753.16;1386414;93;20299;-76
2022/09/22 10:15:39;;;;;;;;;;;;;;;16.51;48.63;100763.28;1391649;94;20316;-77
2022/09/22 10:18:29;;;;;;;;;;;;;;;16.54;49.40;100758.92;1383080;93;20390;-78
2022/09/22 10:21:13;;;;;;;;;;;;;;;16.70;49.48;100753.45;1390688;94;20390;-78
2022/09/22 10:23:41;;;;;;;;;;;;;;;17.03;50.71;100753.22;1377464;94;20301;-77
2022/09/22 10:26:28;;;;;;;;;;;;;;;17.13;49.48;100744.41;1390895;93;20367;-78
2022/09/22 10:29:18;;;;;;;;;;;;;;;17.26;50.86;100738.92;1389557;94;20426;-77
2022/09/22 10:32:01;;;;;;;;;;;;;;;17.24;50.38;100738.30;1388662;94;20307;-77
2022/09/22 10:34:34;;;;;;;;;;;;;;;16.39;52.54;100753.52;1381089;93;20407;-76
2022/09/22 10:37:04;;;;;;;;;;;;;;;16.03;52.96;100743.09;1383584;94;20419;-77
2022/09/22 10:39:43;;;;;;;;;;;;;;;15.41;53.93;100745.97;1383298;94;20277;-77
2022/09/22 10:42:21;;;;;;;;;;;;;;;15.19;57.46;100744.88;1380254;94;20263;-77
2022/09/22 10:44:50;;;;;;;;;;;;;;;14.93;58.76;100753.56;1378742;94;20322;-76
2022/09/22 10:47:28;;;;;;;;;;;;;;;14.43;60.57;100754.85;1385805;93;20449;-77
2022/09/22 10:50:22;;;;;;;;;;;;;;;14.38;62.67;100755.84;1385571;94;20256;-77
2022/09/22 10:52:58;;;;;;;;;;;;;;;14.24;62.52;100752.48;1389200;93;20427;-77
2022/09/22 10:55:31;;;;;;;;;;;;;;;14.54;62.62;100750.25;1384084;94;20264;-80
2022/09/22 10:58:07;;;;;;;;;;;;;;;14.88;63.47;100744.25;1387478;94;20345;-79
2022/09/22 11:00:40;;;;;;;;;;;;;;;15.18;59.47;100734.38;1378770;94;20307;-80
2022/09/22 11:03:26;;;;;;;;;;;;;;;15.59;58.57;100729.73;1390954;94;20865;-80
2022/09/22 11:12:18;;;;;;;;;;;;;;;16.12;54.67;100718.83;1385148;94;20277;-80
2022/09/22 11:15:06;;;;;;;;;;;;;;;16.06;54.07;100724.87;1381364;94;20397;-80
2022/09/22 11:17:51;;;;;;;;;;;;;;;16.08;53.44;100724.17;1385718;94;20307;-80
2022/09/22 11:20:42;;;;;;;;;;;;;;;16.21;52.99;100717.77;1386657;94;20295;-81
2022/09/22 11:23:45;;;;;;;;;;;;;;;16.57;55.43;100712.31;1383208;94;20794;-80
2022/09/22 11:26:31;;;;;;;;;;;;;;;16.55;52.72;100707.17;1387796;94;20316;-80
2022/09/22 11:29:16;;;;;;;;;;;;;;;16.62;53.61;100704.08;1389471;94;20401;-80
2022/09/22 11:31:55;;;;;;;;;;;;;;;16.76;50.58;100702.98;1397704;92;20263;-81
2022/09/22 11:34:32;;;;;;;;;;;;;;;16.96;52.09;100698.80;1397707;92;20298;-80
2022/09/22 11:37:27;;;;;;;;;;;;;;;16.98;49.52;100692.77;1407447;92;20277;-80
2022/09/22 11:40:16;;;;;;;;;;;;;;;16.76;48.89;100698.97;1403954;92;21056;-80
2022/09/22 11:42:47;;;;;;;;;;;;;;;16.96;49.80;100689.44;1408956;92;20283;-80
2022/09/22 11:45:18;;;;;;;;;;;;;;;16.96;49.69;100685.43;1406128;92;20402;-81
2022/09/22 11:47:48;;;;;;;;;;;;;;;17.13;50.85;100686.91;1399795;92;20347;-80
2022/09/22 11:50:25;;;;;;;;;;;;;;;17.26;49.59;100680.08;1402698;92;20415;-80
2022/09/22 11:53:28;;;;;;;;;;;;;;;17.04;49.48;100685.34;1407070;92;20298;-80
2022/09/22 11:56:23;;;;;;;;;;;;;;;17.13;48.70;100683.41;1402828;92;20423;-80
2022/09/22 11:58:52;;;;;;;;;;;;;;;17.09;50.67;100676.27;1401231;92;20307;-81
2022/09/22 12:01:22;;;;;;;;;;;;;;;17.08;50.10;100677.78;1385984;92;20349;-80
2022/09/22 12:04:02;;;;;;;;;;;;;;;16.85;50.09;100675.19;1398433;92;20320;-80
2022/09/22 12:06:31;;;;;;;;;;;;;;;16.85;51.08;100673.84;1402887;92;20819;-80
2022/09/22 12:09:07;;;;;;;;;;;;;;;17.06;50.71;100669.10;1403886;92;20379;-80
2022/09/22 12:11:36;;;;;;;;;;;;;;;17.20;49.54;100672.80;1402698;92;20282;-81
2022/09/22 12:14:03;;;;;;;;;;;;;;;17.42;49.87;100663.84;1396828;92;20313;-80
2022/09/22 12:16:52;;;;;;;;;;;;;;;17.55;47.78;100668.03;1406621;92;20405;-80
2022/09/22 12:19:40;;;;;;;;;;;;;;;17.77;46.99;100668.06;1407253;92;20858;-81
2022/09/22 12:22:31;;;;;;;;;;;;;;;17.96;46.56;100663.47;1399568;92;20245;-81
2022/09/22 12:24:58;;;;;;;;;;;;;;;18.26;47.24;100657.98;1397137;92;20421;-80
2022/09/22 12:27:27;;;;;;;;;;;;;;;17.81;47.99;100666.20;1396157;92;20304;-80
2022/09/22 12:29:57;;;;;;;;;;;;;;;17.41;49.43;100663.53;1403654;92;20318;-78
2022/09/22 12:32:40;;;;;;;;;;;;;;;17.27;50.75;100664.37;1405208;92;20312;-80
2022/09/22 12:35:20;;;;;;;;;;;;;;;17.70;50.87;100672.52;1405150;92;20282;-80
2022/09/22 12:37:46;;;;;;;;;;;;;;;18.34;48.19;100670.42;1406609;92;20263;-81
2022/09/22 12:40:22;;;;;;;;;;;;;;;18.99;48.89;100657.73;1406374;92;20269;-81
2022/09/22 12:42:52;;;;;;;;;;;;;;;19.58;51.33;100656.68;1403986;92;21054;-79
2022/09/22 12:45:35;;;;;;;;;;;;;;;20.09;46.68;100662.12;1408646;92;20420;-80
2022/09/22 12:48:15;;;;;;;;;;;;;;;20.27;45.94;100658.30;1409954;92;20312;-81
2022/09/22 12:50:44;;;;;;;;;;;;;;;20.00;44.15;100655.30;1405281;92;20806;-80
2022/09/22 12:53:26;;;;;;;;;;;;;;;19.83;43.62;100652.98;1411473;92;20401;-80
2022/09/22 12:55:54;;;;;;;;;;;;;;;19.42;44.97;100648.14;1413416;92;20326;-80
2022/09/22 12:58:30;;;;;;;;;;;;;;;18.93;44.23;100648.13;1411705;92;20395;-81
2022/09/22 13:01:33;;;;;;;;;;;;;;;18.54;44.66;100650.50;1410910;92;20374;-81
2022/09/22 13:04:06;;;;;;;;;;;;;;;18.84;43.62;100639.08;1405404;92;20423;-81
2022/09/22 13:06:39;;;;;;;;;;;;;;;19.48;43.60;100636.61;1398646;92;20298;-80
2022/09/22 13:09:09;;;;;;;;;;;;;;;19.75;42.16;100638.91;1406812;92;20380;-80
2022/09/22 13:12:06;;;;;;;;;;;;;;;20.25;42.94;100637.55;1406956;92;20395;-80
2022/09/22 13:15:00;;;;;;;;;;;;;;;19.64;41.28;100651.02;1396705;92;20446;-79
2022/09/22 13:17:42;;;;;;;;;;;;;;;18.88;43.19;100646.55;1410186;92;20408;-80
2022/09/22 13:20:18;;;;;;;;;;;;;;;18.43;44.09;100652.66;1401359;92;20335;-81